aviador You're here:

FKKR Decoded Metar

GAROUA in CAMEROON
Report Time2018-04-22 13:00:00
UTC Time2018-04-22 14:04:50
Flight Rules vfr VFR
Wind300° at 08 kt
W.Decomp.*RWY 27: 6.9 kt HW 4.0 kt RCW
W.Rank300° ranks 4
Current wind is above 300° avg. (5.4)
Visibility9999 m
Phenomena:N/A
Clouds:Few 020 Hf
Few CB 023 Hf
Expected CloudBase > 5,600 ft AGL from Temp-Dew spread
CeilingNone
Temp36°C (ISA +23)
Dew Point22°C (44% RH)
Heat Index40.6°C
QNH1007 hPa
Density Alt3,907 ft
Elevation801 ft
Report Wrong Elevation
Raw Report
FKKR 221300Z 30008KT 9999 FEW020 FEW023CB 36/22 Q1007 NOSIG=

Extra information for FKKR:More info

Metar Taf Metar & Taf Last 4 Metars F.Rules Stats Wind Profile Meteogram Temp Stats Airport Information Weather charts Add Link Nearby VenuesMetar ALERT Operation Metar Decoded Social comments